createdAt,value
2022-09-06T00:00:42.095Z,63.60
2022-09-06T00:03:45.397Z,63.41
2022-09-06T00:06:47.696Z,63.65
2022-09-06T00:09:50.289Z,64.01
2022-09-06T00:12:53.705Z,64.21
2022-09-06T00:15:56.549Z,64.26
2022-09-06T00:18:58.890Z,64.77
2022-09-06T00:22:01.337Z,65.58
2022-09-06T00:25:07.516Z,65.40
2022-09-06T00:28:09.975Z,66.64
2022-09-06T00:31:13.456Z,67.26
2022-09-06T00:34:15.999Z,67.29
2022-09-06T00:37:18.162Z,67.31
2022-09-06T00:40:22.942Z,67.46
2022-09-06T00:43:25.606Z,68.53
2022-09-06T00:46:31.568Z,68.95
2022-09-06T00:49:40.129Z,68.16
2022-09-06T00:52:45.074Z,68.04
2022-09-06T00:55:50.458Z,69.58
2022-09-06T00:58:54.098Z,69.33
2022-09-06T01:01:56.482Z,69.34
2022-09-06T01:05:01.651Z,69.34
2022-09-06T01:08:31.620Z,69.45
2022-09-06T01:11:57.640Z,69.59
2022-09-06T01:15:09.834Z,70.02
2022-09-06T01:18:21.958Z,69.30
2022-09-06T01:21:44.035Z,69.25
2022-09-06T01:25:18.986Z,68.86
2022-09-06T01:28:45.968Z,68.62
2022-09-06T01:31:54.744Z,68.23
2022-09-06T01:35:07.030Z,67.56
2022-09-06T01:38:11.643Z,68.00
2022-09-06T01:41:14.035Z,67.89
2022-09-06T01:44:16.652Z,67.64
2022-09-06T01:47:39.892Z,66.74
2022-09-06T01:50:57.609Z,66.36
2022-09-06T01:54:21.542Z,66.60
2022-09-06T01:57:40.917Z,67.37
2022-09-06T02:00:58.923Z,67.33
2022-09-06T02:04:20.546Z,66.89
2022-09-06T02:07:26.506Z,67.21
2022-09-06T02:10:40.940Z,67.82
2022-09-06T02:13:50.301Z,68.46
2022-09-06T02:16:54.965Z,68.43
2022-09-06T02:20:08.294Z,68.81
2022-09-06T02:23:12.567Z,68.75
2022-09-06T02:26:21.778Z,68.68
2022-09-06T02:29:24.411Z,69.44
2022-09-06T02:32:28.215Z,69.87
2022-09-06T02:35:31.157Z,69.53
2022-09-06T02:38:36.585Z,69.43
2022-09-06T02:41:42.425Z,69.46
2022-09-06T02:44:44.592Z,70.39
2022-09-06T02:47:47.059Z,70.54
2022-09-06T02:50:49.195Z,71.01
2022-09-06T02:53:51.842Z,71.58
2022-09-06T02:56:54.028Z,71.94
2022-09-06T02:59:57.550Z,71.76
2022-09-06T03:03:00.142Z,72.47
2022-09-06T03:06:02.660Z,72.29
2022-09-06T03:09:04.800Z,72.62
2022-09-06T03:12:07.676Z,72.54
2022-09-06T03:15:11.589Z,73.32
2022-09-06T03:18:14.838Z,73.04
2022-09-06T03:21:17.079Z,72.88
2022-09-06T03:24:20.168Z,73.30
2022-09-06T03:27:22.323Z,73.26
2022-09-06T03:30:24.832Z,73.44
2022-09-06T03:33:27.032Z,72.65
2022-09-06T03:36:29.717Z,72.80
2022-09-06T03:39:32.797Z,72.53
2022-09-06T03:42:36.785Z,72.74
2022-09-06T03:45:39.178Z,72.37
2022-09-06T03:48:42.067Z,72.24
2022-09-06T03:51:45.139Z,71.71
2022-09-06T03:54:47.884Z,72.15
2022-09-06T03:57:53.049Z,72.42
2022-09-06T04:01:10.605Z,71.70
2022-09-06T04:04:13.143Z,71.25
2022-09-06T04:07:15.251Z,71.40
2022-09-06T04:10:17.752Z,71.21
2022-09-06T04:13:19.903Z,71.15
2022-09-06T04:16:22.397Z,70.31
2022-09-06T04:19:24.705Z,70.50
2022-09-06T04:22:27.614Z,71.75
2022-09-06T04:25:29.814Z,68.45
2022-09-06T04:28:34.502Z,67.73
2022-09-06T04:31:36.728Z,68.20
2022-09-06T04:34:39.221Z,66.62
2022-09-06T04:37:41.316Z,66.21
2022-09-06T04:40:43.760Z,65.95
2022-09-06T04:43:45.939Z,66.14
2022-09-06T04:46:49.044Z,66.34
2022-09-06T04:49:51.301Z,65.51
2022-09-06T04:52:53.660Z,64.47
2022-09-06T04:55:58.250Z,64.96
2022-09-06T04:59:00.874Z,64.46
2022-09-06T05:02:03.373Z,63.71
2022-09-06T05:05:06.138Z,63.32
2022-09-06T05:08:08.345Z,63.48
2022-09-06T05:11:13.737Z,62.29
2022-09-06T05:14:16.363Z,61.89
2022-09-06T05:17:18.738Z,61.81
2022-09-06T05:20:23.142Z,61.21
2022-09-06T05:23:26.664Z,59.32
2022-09-06T05:26:28.765Z,58.41
2022-09-06T05:29:31.417Z,56.46
2022-09-06T05:32:33.533Z,54.16
2022-09-06T05:35:36.299Z,54.89
2022-09-06T05:38:38.405Z,56.20
2022-09-06T05:41:40.767Z,55.93
2022-09-06T05:44:42.902Z,55.90
2022-09-06T05:47:45.530Z,51.01
2022-09-06T05:50:47.754Z,48.01
2022-09-06T05:53:50.403Z,43.17
2022-09-06T05:56:52.878Z,38.12
2022-09-06T05:59:55.119Z,34.89
2022-09-06T06:02:59.676Z,31.71
2022-09-06T06:06:02.227Z,30.52
2022-09-06T06:09:04.539Z,29.10
2022-09-06T06:12:07.616Z,27.84
2022-09-06T06:15:10.148Z,27.35
2022-09-06T06:18:12.643Z,27.86
2022-09-06T06:21:19.627Z,26.55
2022-09-06T06:24:22.551Z,25.62
2022-09-06T06:27:24.650Z,24.42
2022-09-06T06:30:27.169Z,24.10
2022-09-06T06:33:29.471Z,23.72
2022-09-06T06:36:34.626Z,23.78
2022-09-06T06:39:37.030Z,23.66
2022-09-06T06:42:39.447Z,24.22
2022-09-06T06:45:41.939Z,23.80
2022-09-06T06:48:46.061Z,24.22
2022-09-06T06:51:48.155Z,22.94
2022-09-06T06:54:50.531Z,23.04
2022-09-06T06:57:52.700Z,23.92
2022-09-06T07:00:55.152Z,23.78
2022-09-06T07:03:58.084Z,23.11
2022-09-06T07:10:38.057Z,22.43
2022-09-06T07:13:40.981Z,23.70
2022-09-06T07:16:43.536Z,22.02
2022-09-06T07:26:30.731Z,22.06
2022-09-06T07:29:32.871Z,23.00
2022-09-06T07:32:35.446Z,24.05
2022-09-06T07:35:37.574Z,25.54
2022-09-06T07:38:40.477Z,26.92
2022-09-06T07:41:42.946Z,28.60
2022-09-06T07:44:45.482Z,29.78
2022-09-06T07:48:00.263Z,33.39
2022-09-06T07:51:07.182Z,34.11
2022-09-06T07:57:31.826Z,36.01
2022-09-06T08:00:34.025Z,36.28
2022-09-06T08:03:36.479Z,37.67
2022-09-06T08:10:07.633Z,37.65
2022-09-06T08:13:09.767Z,37.57
2022-09-06T08:16:13.924Z,37.64
2022-09-06T08:19:16.772Z,38.72
2022-09-06T08:22:19.159Z,39.48
2022-09-06T08:25:22.822Z,38.78
2022-09-06T08:28:28.778Z,40.06
2022-09-06T08:31:32.854Z,38.53
2022-09-06T08:34:35.396Z,39.64
2022-09-06T08:37:37.574Z,39.33
2022-09-06T08:40:40.106Z,37.93
2022-09-06T08:47:26.100Z,36.70
2022-09-06T08:50:29.035Z,36.27
2022-09-06T08:53:32.382Z,35.90
2022-09-06T08:56:42.531Z,37.19
2022-09-06T08:59:45.088Z,36.29
2022-09-06T09:02:51.974Z,36.29
2022-09-06T09:05:54.580Z,36.34
2022-09-06T09:09:07.075Z,36.40
2022-09-06T09:12:13.165Z,36.76
2022-09-06T09:15:19.108Z,36.65
2022-09-06T09:18:33.252Z,36.49
2022-09-06T09:21:40.467Z,35.21
2022-09-06T09:24:43.178Z,35.76
2022-09-06T09:27:45.632Z,36.16
2022-09-06T09:30:53.649Z,37.04
2022-09-06T09:33:56.204Z,37.08
2022-09-06T09:40:49.408Z,37.96
2022-09-06T09:44:01.174Z,37.71
2022-09-06T09:47:23.741Z,38.07
2022-09-06T09:50:30.425Z,38.79
2022-09-06T09:53:32.702Z,39.09
2022-09-06T09:56:47.206Z,39.54
2022-09-06T09:59:58.794Z,39.92
2022-09-06T10:03:11.654Z,39.48
2022-09-06T10:09:41.559Z,39.58
2022-09-06T10:12:44.004Z,38.71
2022-09-06T10:15:47.068Z,39.21
2022-09-06T10:18:52.703Z,38.74
2022-09-06T10:22:03.868Z,39.77
2022-09-06T10:25:31.939Z,39.52
2022-09-06T10:28:36.415Z,38.52
2022-09-06T10:31:57.783Z,38.56
2022-09-06T10:35:14.942Z,38.66
2022-09-06T10:38:48.375Z,39.68
2022-09-06T10:42:10.168Z,38.76
2022-09-06T10:45:18.137Z,39.63
2022-09-06T10:48:26.490Z,38.92
2022-09-06T10:51:54.493Z,39.14
2022-09-06T10:55:03.884Z,39.02
2022-09-06T10:58:22.910Z,39.12
2022-09-06T11:01:37.553Z,39.36
2022-09-06T11:11:46.400Z,39.17
2022-09-06T11:14:48.634Z,39.09
2022-09-06T11:18:05.481Z,39.63
2022-09-06T11:21:38.736Z,39.54
2022-09-06T11:25:02.164Z,39.03
2022-09-06T11:28:11.498Z,39.43
2022-09-06T11:34:58.912Z,38.53
2022-09-06T11:38:08.269Z,37.51
2022-09-06T11:41:17.178Z,38.75
2022-09-06T11:44:50.574Z,39.64
2022-09-06T11:47:53.532Z,38.58
2022-09-06T11:50:56.370Z,39.79
2022-09-06T11:53:58.506Z,39.30
2022-09-06T11:57:22.454Z,39.05
2022-09-06T12:00:25.170Z,39.83
2022-09-06T12:07:12.997Z,37.74
2022-09-06T12:10:40.263Z,38.39
2022-09-06T12:14:17.208Z,38.43
2022-09-06T12:17:21.216Z,37.43
2022-09-06T12:20:48.454Z,38.76
2022-09-06T12:23:50.868Z,38.73
2022-09-06T12:27:12.338Z,36.46
2022-09-06T12:30:37.343Z,37.09
2022-09-06T12:33:39.503Z,36.75
2022-09-06T12:36:53.686Z,36.89
2022-09-06T12:39:59.945Z,35.56
2022-09-06T12:43:04.302Z,35.45
2022-09-06T12:46:07.981Z,36.39
2022-09-06T12:49:12.259Z,36.85
2022-09-06T12:52:19.358Z,36.13
2022-09-06T12:55:37.043Z,36.86
2022-09-06T12:58:39.595Z,37.39
2022-09-06T13:01:49.298Z,36.33
2022-09-06T13:05:02.075Z,37.16
2022-09-06T13:08:05.297Z,37.50
2022-09-06T13:11:13.429Z,37.34
2022-09-06T13:14:27.728Z,37.23
2022-09-06T13:17:30.990Z,37.94
2022-09-06T13:20:33.421Z,37.59
2022-09-06T13:23:47.627Z,38.40
2022-09-06T13:26:51.020Z,38.83
2022-09-06T13:29:58.594Z,38.95
2022-09-06T13:33:01.505Z,39.39
2022-09-06T13:36:11.559Z,39.67
2022-09-06T13:39:37.616Z,39.54
2022-09-06T13:42:40.307Z,39.12
2022-09-06T13:45:44.320Z,39.38
2022-09-06T13:48:47.699Z,38.74
2022-09-06T13:51:52.680Z,39.28
2022-09-06T13:54:54.875Z,39.36
2022-09-06T13:57:57.321Z,39.70
2022-09-06T14:01:04.663Z,40.46
2022-09-06T14:04:07.329Z,40.41
2022-09-06T14:07:09.390Z,39.77
2022-09-06T14:10:11.809Z,40.35
2022-09-06T14:13:15.635Z,40.16
2022-09-06T14:16:18.100Z,40.75
2022-09-06T14:19:20.356Z,40.93
2022-09-06T14:22:22.786Z,41.29
2022-09-06T14:25:25.161Z,41.56
2022-09-06T14:28:28.557Z,41.65
2022-09-06T14:31:32.594Z,41.25
2022-09-06T14:34:35.182Z,42.22
2022-09-06T14:37:37.783Z,42.90
2022-09-06T14:40:44.068Z,42.58
2022-09-06T14:43:50.403Z,43.67
2022-09-06T14:46:54.501Z,44.38
2022-09-06T14:49:56.643Z,44.34
2022-09-06T14:52:59.130Z,43.27
2022-09-06T14:56:03.172Z,43.12
2022-09-06T14:59:06.612Z,43.54
2022-09-06T15:02:08.832Z,47.50
2022-09-06T15:05:11.300Z,47.70
2022-09-06T15:08:14.475Z,47.39
2022-09-06T15:11:35.026Z,50.57
2022-09-06T15:14:37.836Z,55.44
2022-09-06T15:17:40.276Z,53.60
2022-09-06T15:20:43.388Z,55.03
2022-09-06T15:23:45.871Z,53.90
2022-09-06T15:26:49.144Z,55.86
2022-09-06T15:29:51.529Z,58.64
2022-09-06T15:32:53.649Z,62.12
2022-09-06T15:35:56.596Z,68.20
2022-09-06T15:39:01.064Z,65.03
2022-09-06T15:42:03.673Z,67.65
2022-09-06T15:45:06.738Z,66.78
2022-09-06T15:48:09.379Z,68.98
2022-09-06T15:51:13.735Z,71.70
2022-09-06T15:54:18.922Z,72.31
2022-09-06T15:57:21.084Z,73.58
2022-09-06T16:00:24.228Z,75.13
2022-09-06T16:03:26.929Z,71.85
2022-09-06T16:06:31.896Z,66.99
2022-09-06T16:09:34.468Z,67.00
2022-09-06T16:12:36.596Z,68.19
2022-09-06T16:15:38.989Z,69.09
2022-09-06T16:18:43.227Z,68.38
2022-09-06T16:21:45.637Z,70.62
2022-09-06T16:24:47.742Z,69.27
2022-09-06T16:27:50.139Z,68.41
2022-09-06T16:30:52.306Z,68.58
2022-09-06T16:33:56.208Z,67.82
2022-09-06T16:36:58.403Z,69.11
2022-09-06T16:40:01.300Z,66.78
2022-09-06T16:43:03.880Z,65.25
2022-09-06T16:46:07.821Z,67.42
2022-09-06T16:49:10.155Z,66.73
2022-09-06T16:52:13.316Z,66.53
2022-09-06T16:55:15.557Z,67.09
2022-09-06T16:58:17.951Z,68.53
2022-09-06T17:01:21.247Z,68.27
2022-09-06T17:04:23.778Z,64.76
2022-09-06T17:07:26.068Z,65.61
2022-09-06T17:10:28.748Z,63.75
2022-09-06T17:13:32.105Z,64.50
2022-09-06T17:16:53.035Z,64.99
2022-09-06T17:19:55.237Z,65.57
2022-09-06T17:22:57.671Z,65.19
2022-09-06T17:26:00.333Z,65.85
2022-09-06T17:29:03.674Z,66.41
2022-09-06T17:32:10.012Z,67.27
2022-09-06T17:35:12.692Z,66.86
2022-09-06T17:38:16.379Z,67.15
2022-09-06T17:41:27.915Z,67.05
2022-09-06T17:44:30.188Z,66.31
2022-09-06T17:47:34.356Z,66.39
2022-09-06T17:50:36.962Z,67.33
2022-09-06T17:53:39.626Z,68.59
2022-09-06T17:56:41.828Z,68.48
2022-09-06T17:59:44.289Z,68.08
2022-09-06T18:02:46.383Z,69.72
2022-09-06T18:05:48.763Z,69.10
2022-09-06T18:08:53.538Z,71.03
2022-09-06T18:11:55.957Z,71.33
2022-09-06T18:14:58.113Z,70.44
2022-09-06T18:18:00.580Z,70.46
2022-09-06T18:21:04.363Z,71.81
2022-09-06T18:24:07.955Z,72.02
2022-09-06T18:27:10.106Z,72.51
2022-09-06T18:30:14.857Z,73.17
2022-09-06T18:33:17.760Z,73.95
2022-09-06T18:36:20.239Z,73.88
2022-09-06T18:39:22.500Z,75.56
2022-09-06T18:42:24.943Z,73.85
2022-09-06T18:45:27.177Z,73.51
2022-09-06T18:48:33.602Z,73.83
2022-09-06T18:51:39.320Z,72.71
2022-09-06T18:54:43.576Z,73.31
2022-09-06T18:57:45.709Z,73.51
2022-09-06T19:00:48.279Z,73.42
2022-09-06T19:03:50.611Z,74.10
2022-09-06T19:06:53.029Z,73.69
2022-09-06T19:09:55.195Z,74.42
2022-09-06T19:12:57.579Z,73.55
2022-09-06T19:16:00.452Z,73.56
2022-09-06T19:19:07.554Z,74.17
2022-09-06T19:22:09.764Z,75.21
2022-09-06T19:25:12.166Z,74.71
2022-09-06T19:28:14.307Z,75.42
2022-09-06T19:31:17.408Z,75.49
2022-09-06T19:34:32.788Z,75.67
2022-09-06T19:37:35.332Z,76.68
2022-09-06T19:40:37.728Z,76.90
2022-09-06T19:43:40.381Z,77.63
2022-09-06T19:46:46.265Z,78.00
2022-09-06T19:49:48.803Z,79.09
2022-09-06T19:52:50.964Z,79.93
2022-09-06T19:55:53.336Z,80.69
2022-09-06T19:58:57.815Z,80.80
2022-09-06T20:02:00.282Z,80.45
2022-09-06T20:05:02.759Z,80.32
2022-09-06T20:08:05.129Z,81.01
2022-09-06T20:11:09.688Z,81.57
2022-09-06T20:14:13.065Z,81.83
2022-09-06T20:17:32.756Z,81.97
2022-09-06T20:20:35.731Z,82.76
2022-09-06T20:23:38.130Z,83.22
2022-09-06T20:26:40.672Z,83.13
2022-09-06T20:29:43.188Z,83.51
2022-09-06T20:32:45.324Z,84.00
2022-09-06T20:36:04.979Z,84.45
2022-09-06T20:39:07.156Z,84.83
2022-09-06T20:42:09.536Z,85.06
2022-09-06T20:45:12.966Z,85.41
2022-09-06T20:48:15.357Z,85.67
2022-09-06T20:51:23.241Z,86.06
2022-09-06T20:54:25.840Z,85.60
2022-09-06T20:57:28.074Z,85.45
2022-09-06T21:00:30.512Z,85.97
2022-09-06T21:03:38.092Z,86.25
2022-09-06T21:06:40.595Z,86.12
2022-09-06T21:09:42.708Z,85.74
2022-09-06T21:12:45.085Z,85.84
2022-09-06T21:15:47.366Z,85.91
2022-09-06T21:18:54.106Z,85.77
2022-09-06T21:21:56.249Z,85.31
2022-09-06T21:24:58.613Z,84.52
2022-09-06T21:28:00.760Z,84.21
2022-09-06T21:31:14.923Z,83.90
2022-09-06T21:34:17.507Z,83.29
2022-09-06T21:37:19.995Z,83.17
2022-09-06T21:40:22.110Z,83.35
2022-09-06T21:43:24.977Z,82.99
2022-09-06T21:46:33.344Z,83.23
2022-09-06T21:49:36.107Z,83.64
2022-09-06T21:52:38.373Z,83.49
2022-09-06T21:55:41.371Z,83.50
2022-09-06T21:58:44.570Z,83.75
2022-09-06T22:01:47.074Z,83.63
2022-09-06T22:04:50.624Z,83.59
2022-09-06T22:07:52.751Z,83.40
2022-09-06T22:10:55.123Z,83.36
2022-09-06T22:14:03.336Z,83.92
2022-09-06T22:17:05.830Z,84.27
2022-09-06T22:20:09.620Z,84.78
2022-09-06T22:23:12.038Z,84.54
2022-09-06T22:26:14.178Z,84.85
2022-09-06T22:29:16.670Z,85.18
2022-09-06T22:32:19.491Z,85.41
2022-09-06T22:35:22.082Z,85.58
2022-09-06T22:38:24.691Z,85.74
2022-09-06T22:41:29.927Z,85.90
2022-09-06T22:44:32.076Z,85.93
2022-09-06T22:47:34.803Z,86.09
2022-09-06T22:50:36.970Z,86.19
2022-09-06T22:53:39.542Z,86.40
2022-09-06T22:56:41.638Z,86.71
2022-09-06T22:59:44.038Z,86.78
2022-09-06T23:02:46.142Z,87.15
2022-09-06T23:05:48.872Z,87.58
2022-09-06T23:08:51.478Z,87.70
2022-09-06T23:11:54.692Z,88.01
2022-09-06T23:14:56.940Z,88.30
2022-09-06T23:17:59.480Z,88.94
2022-09-06T23:21:09.881Z,88.81
2022-09-06T23:24:12.782Z,88.93
2022-09-06T23:27:15.385Z,89.21
2022-09-06T23:30:19.041Z,89.28
2022-09-06T23:33:21.147Z,89.57
2022-09-06T23:36:24.190Z,89.67
2022-09-06T23:39:28.157Z,89.38
2022-09-06T23:42:30.586Z,89.21
2022-09-06T23:45:33.028Z,89.53
2022-09-06T23:48:35.529Z,89.61
2022-09-06T23:51:37.656Z,89.60
2022-09-06T23:54:40.038Z,89.48
2022-09-06T23:57:42.171Z,89.31
